Terminal Aerodrome Forecast
Issued by NWS Sioux Falls, SD

Home | Current Version | Previous Version | Graphics & Text | Print | Product List | Glossary On
Versions: 1 2 3 4 5 6 7 8 9 10 11 12 13
888
FTUS43 KFSD 050532
TAFHON
TAF
KHON 050532Z 0506/0606 17007KT P6SM BKN120
     FM051300 19008KT P6SM OVC045
     FM051700 21008KT 5SM -SN OVC030
     FM052100 32011KT P6SM SCT020 OVC040
     FM052300 33008KT P6SM BKN060=

USA.gov is the U.S. government's official web portal to all federal, state and local government web resources and services.